EFKE/KEM METAR and TAF weather

Enter ICAO airport designator
Station Type Date Time Source
EFKE METAR 2022/01/29 13:50 UTC NOAA

EFKE 291350Z AUTO 09007KT 6000 -SN OVC021 M06/M07 Q0984


Station Type Date Time Source
EFKE Decoded METAR 2022/01/29 13:50 UTC NOAA

Kemi, Finland (EFKE) 65-47N 024-35E
Jan 29, 2022 - 08:50 AM EST / 2022.01.29 1350 UTC
Wind: from the E (090 degrees) at 8 MPH (7 KT):0
Visibility: 3 mile(s):0
Sky conditions: overcast
Weather: light snow
Temperature: 21 F (-6 C)
Windchill: 12 F (-11 C):1
Dew Point: 19 F (-7 C)
Relative Humidity: 92%
Pressure (altimeter): 29.06 in. Hg (0984 hPa)
ob: EFKE 291350Z AUTO 09007KT 6000 -SN OVC021 M06/M07 Q0984
cycle: 14

Station Type Date Time Source
EFKE TAF 2015/01/12 15:42 UTC NOAA

TAF EFKE 121433Z 1215/1312 03006KT CAVOK
BECMG 1300/1302 9999 BKN015
FM130400 07008KT 9999 SCT014 BKN018
TEMPO 1304/1312 7000 -SN

Example: see airport list